Terminal Aerodrome Forecast
Issued by NWS Wilmington, NC

Home | Current Version | Previous Version | Text Only | Print | Product List | Glossary On
Versions: 1 2 3 4 5 6 7 8 9 10 11 12 13 14 15 16 17 18
000
FTUS42 KILM 081635 AAB
TAFILM
TAF AMD
KILM 081635Z 0817/0912 29010KT P6SM SCT015 BKN025
     FM081900 32011KT P6SM SCT050 BKN100
     FM090000 34008KT P6SM SCT250=

USA.gov is the U.S. government's official web portal to all federal, state and local government web resources and services.